MFM weather

Macau International Airport
Macau, Macau

Public forecast

Using degrees Celsius for public forecast. Weather courtesy of forecast.io.

METAR (pilot weather report)

Retrieved 2019/04/26 16:30 UTC (0 seconds ago):

VMMC 261630Z 09008KT 020V140 7000 FEW008 SCT020 26/25 Q1011 NOSIG

TAF (pilot weather forecast)

Retrieved 2019/04/26 12:36 UTC (4 hours ago):

TAF VMMC 261100Z 2612/2718 12010KT 9999 FEW010 SCT025 TEMPO 2612/2616 18008KT TEMPO 2621/2704 4000 SHRA FEW008CB SCT015 PROB40 TEMPO 2700/2703 VRB20G30KT 2500 TSRA